^^
Grace C. Lehan Memorial Weather Station Historical Data
Daily Summary for May 24, 2022 Units:  English    Metric   Both
Daily Weekly Monthly Yearly
  High: Low: Average:
Temperature: 74.6 °F 54.6 °F 63.7 °F
Dew Point: 52.4 °F 44 °F 47.5 °F
Humidity: 73% 40.7% 56%
Wind Speed: 3mph 0mph 0.4mph
Wind Gust: 10mph - -
Wind- - ESE
Pressure: 30.32 in 30.21 in -
Precipitation: 0.00 in    
 
 
Tabular Data for May 24, 2022
Time Temperature Dew Point Pressure Wind Wind Speed Wind Gust Humidity Rainfall Rate (Hourly) solar
00:09 64 °F 46.3 °F 30.21 in Calm     52.5% 0.00 in 0 W/m2
00:14 64 °F 46.5 °F 30.21 in NNE 0.1 mph 2 mph 53% 0.00 in 0 W/m2
00:19 63.8 °F 46.9 °F 30.22 in NNE 0.2 mph 3 mph 54% 0.00 in 0 W/m2
00:24 63.7 °F 46.6 °F 30.22 in North 0.3 mph 3 mph 53.8% 0.00 in 0 W/m2
00:29 63.6 °F 46.6 °F 30.22 in Calm   3 mph 53.9% 0.00 in 0 W/m2
00:34 63.4 °F 46.6 °F 30.22 in NNW 0.8 mph 5 mph 54.2% 0.00 in 0 W/m2
00:39 63.2 °F 46.4 °F 30.22 in NW 0.4 mph 5 mph 54.2% 0.00 in 0 W/m2
00:44 63 °F 46.4 °F 30.22 in NNW 1 mph 6 mph 54.5% 0.00 in 0 W/m2
00:49 62.8 °F 46.3 °F 30.22 in NW 0.3 mph 6 mph 54.8% 0.00 in 0 W/m2
00:54 62.6 °F 46.1 °F 30.22 in NNW 0.5 mph 6 mph 54.7% 0.00 in 0 W/m2
00:59 62.5 °F 46 °F 30.22 in North 0.3 mph 6 mph 54.8% 0.00 in 0 W/m2
01:04 62.3 °F 46.2 °F 30.22 in NNW 0.6 mph 6 mph 55.4% 0.00 in 0 W/m2
01:09 62.2 °F 45.9 °F 30.22 in NW 0.5 mph 4 mph 55.1% 0.00 in 0 W/m2
01:14 62 °F 45.8 °F 30.22 in North 0.9 mph 7 mph 55.1% 0.00 in 0 W/m2
01:19 61.8 °F 45.7 °F 30.22 in NE 0.2 mph 7 mph 55.4% 0.00 in 0 W/m2
01:24 61.7 °F 45.4 °F 30.22 in NE 0.3 mph 7 mph 55% 0.00 in 0 W/m2
01:29 61.6 °F 45.3 °F 30.22 in NE 0.1 mph 7 mph 55% 0.00 in 0 W/m2
01:34 61.4 °F 45.1 °F 30.22 in NNE 0.7 mph 7 mph 55% 0.00 in 0 W/m2
01:39 61.3 °F 45 °F 30.22 in NE 0.2 mph 5 mph 55% 0.00 in 0 W/m2
01:44 61.2 °F 45.3 °F 30.23 in NE 0.2 mph 5 mph 55.7% 0.00 in 0 W/m2
01:49 61.1 °F 44.9 °F 30.23 in NE 0.6 mph 5 mph 55% 0.00 in 0 W/m2
01:54 61 °F 45.2 °F 30.23 in NE 0.1 mph 5 mph 56% 0.00 in 0 W/m2
01:59 60.9 °F 45.2 °F 30.23 in Calm   5 mph 56% 0.00 in 0 W/m2
02:04 60.9 °F 45.3 °F 30.23 in NE 0.1 mph 5 mph 56.4% 0.00 in 0 W/m2
02:09 60.8 °F 45.7 °F 30.23 in ENE 0.1 mph 3 mph 57.6% 0.00 in 0 W/m2
02:14 60.6 °F 45.9 °F 30.23 in NE 0.4 mph 4 mph 58.2% 0.00 in 0 W/m2
02:19 60.5 °F 46.9 °F 30.23 in NE 0.1 mph 4 mph 60.8% 0.00 in 0 W/m2
02:24 60.2 °F 47.1 °F 30.23 in Calm   4 mph 61.8% 0.00 in 0 W/m2
02:29 60 °F 47.7 °F 30.23 in Calm   4 mph 63.8% 0.00 in 0 W/m2
02:34 59.8 °F 47.9 °F 30.23 in North 0.2 mph 4 mph 64.5% 0.00 in 0 W/m2
02:39 59.6 °F 47.3 °F 30.23 in North 0.2 mph 3 mph 63.8% 0.00 in 0 W/m2
02:44 59.4 °F 46.8 °F 30.23 in North 0.1 mph 3 mph 62.8% 0.00 in 0 W/m2
02:49 59.3 °F 47 °F 30.23 in Calm   3 mph 63.6% 0.00 in 0 W/m2
02:54 59.1 °F 46.5 °F 30.23 in NNE 0.4 mph 4 mph 62.8% 0.00 in 0 W/m2
02:59 59 °F 46.5 °F 30.24 in ENE 0.3 mph 5 mph 63.1% 0.00 in 0 W/m2
03:04 58.9 °F 46.2 °F 30.24 in ENE 0.3 mph 5 mph 62.6% 0.00 in 0 W/m2
03:09 58.9 °F 46.2 °F 30.24 in ENE 0.1 mph 3 mph 62.7% 0.00 in 0 W/m2
03:14 58.8 °F 46.2 °F 30.24 in NE 0.2 mph 3 mph 62.9% 0.00 in 0 W/m2
03:19 58.8 °F 46.4 °F 30.24 in Calm   3 mph 63.4% 0.00 in 0 W/m2
03:24 58.7 °F 46.2 °F 30.24 in Calm   3 mph 63% 0.00 in 0 W/m2
03:29 58.6 °F 46 °F 30.25 in NE 0.1 mph 3 mph 62.8% 0.00 in 0 W/m2
03:34 58.5 °F 45.9 °F 30.24 in NE 0.3 mph 3 mph 62.9% 0.00 in 0 W/m2
03:39 58.4 °F 45.8 °F 30.24 in NE 0.3 mph 3 mph 62.8% 0.00 in 0 W/m2
03:44 58.4 °F 45.6 °F 30.24 in ENE 0.4 mph 3 mph 62.5% 0.00 in 0 W/m2
03:49 58.3 °F 45.6 °F 30.24 in ENE 1.4 mph 6 mph 62.6% 0.00 in 0 W/m2
03:54 58.2 °F 45.2 °F 30.24 in ENE 0.5 mph 6 mph 61.8% 0.00 in 0 W/m2
03:59 58.2 °F 45.2 °F 30.24 in Calm   6 mph 61.8% 0.00 in 0 W/m2
04:00 58.2 °F 45.3 °F 30.24 in Calm   6 mph 62% 0.00 in 0 W/m2
04:09 58.2 °F 44.6 °F 30.24 in ENE 0.5 mph 4 mph 60.4% 0.00 in 0 W/m2
04:14 58.2 °F 44.6 °F 30.24 in ENE 1.2 mph 4 mph 60.5% 0.00 in 0 W/m2
04:19 58.2 °F 44.4 °F 30.24 in ENE 1 mph 7 mph 60% 0.00 in 0 W/m2
04:24 58.2 °F 44.4 °F 30.24 in NE 0.2 mph 7 mph 60% 0.00 in 0 W/m2
04:29 58.1 °F 44.4 °F 30.24 in NE 0.2 mph 7 mph 60.2% 0.00 in 0 W/m2
04:34 58.1 °F 44.3 °F 30.24 in ENE 0.2 mph 7 mph 60% 0.00 in 0 W/m2
04:39 58 °F 44.2 °F 30.24 in ENE 0.4 mph 4 mph 60% 0.00 in 0 W/m2
04:44 58 °F 44.5 °F 30.24 in Calm   4 mph 60.7% 0.00 in 0 W/m2
04:49 57.9 °F 44.5 °F 30.24 in ENE 0.7 mph 5 mph 60.9% 0.00 in 0 W/m2
04:54 57.9 °F 44.2 °F 30.25 in ENE 0.3 mph 5 mph 60.3% 0.00 in 0 W/m2
04:59 57.8 °F 44.1 °F 30.24 in ENE 0.7 mph 5 mph 60.1% 0.00 in 0 W/m2
05:04 57.7 °F 44 °F 30.24 in ENE 0.1 mph 5 mph 60.2% 0.00 in 0 W/m2
05:09 57.7 °F 44.3 °F 30.24 in ENE 0.2 mph 4 mph 60.9% 0.00 in 0 W/m2
05:14 57.6 °F 44.2 °F 30.24 in ENE 0.1 mph 4 mph 60.8% 0.00 in 0 W/m2
05:19 57.5 °F 44.2 °F 30.24 in Calm   4 mph 61% 0.00 in 0 W/m2
05:24 57.5 °F 44.1 °F 30.25 in Calm   4 mph 61% 0.00 in 0 W/m2
05:29 57.4 °F 44.4 °F 30.24 in ENE 0.2 mph 4 mph 61.8% 0.00 in 0 W/m2
05:34 57.3 °F 44 °F 30.24 in ENE 0.1 mph 4 mph 61.2% 0.00 in 7 W/m2
05:39 57.2 °F 44.3 °F 30.25 in NE 0.3 mph 4 mph 62% 0.00 in 14 W/m2
05:44 57.1 °F 44.1 °F 30.25 in Calm   4 mph 61.8% 0.00 in 19 W/m2
05:49 57 °F 44.1 °F 30.25 in NNW 0.2 mph 4 mph 62% 0.00 in 23 W/m2
05:54 57 °F 44.1 °F 30.25 in NNE 0.3 mph 4 mph 62% 0.00 in 28 W/m2
05:59 56.9 °F 44.3 °F 30.26 in East 0.1 mph 4 mph 62.6% 0.00 in 37 W/m2
06:04 56.8 °F 44.3 °F 30.26 in East 0.3 mph 4 mph 62.7% 0.00 in 42 W/m2
06:09 56.8 °F 44.3 °F 30.26 in NNE 0.3 mph 4 mph 62.8% 0.00 in 49 W/m2
06:14 56.7 °F 44.3 °F 30.26 in NNE 0.3 mph 4 mph 63.2% 0.00 in 53 W/m2
06:19 56.7 °F 44.3 °F 30.26 in ENE 0.3 mph 4 mph 63% 0.00 in 56 W/m2
06:24 56.7 °F 44.4 °F 30.27 in ESE 0.3 mph 5 mph 63.3% 0.00 in 62 W/m2
06:29 56.6 °F 44.6 °F 30.27 in Calm   5 mph 64% 0.00 in 65 W/m2
06:34 56.6 °F 44.6 °F 30.27 in ESE 0.1 mph 5 mph 64% 0.00 in 81 W/m2
06:39 56.6 °F 44.7 °F 30.27 in Calm   2 mph 64.3% 0.00 in 93 W/m2
06:44 56.7 °F 44.9 °F 30.27 in ESE 0.1 mph 3 mph 64.5% 0.00 in 109 W/m2
06:49 56.7 °F 45.1 °F 30.27 in NNE 0.7 mph 4 mph 65% 0.00 in 127 W/m2
06:54 56.9 °F 45.1 °F 30.27 in Calm   4 mph 64.6% 0.00 in 128 W/m2
06:59 57 °F 44.9 °F 30.27 in ENE 0.5 mph 4 mph 64% 0.00 in 127 W/m2
07:04 57.1 °F 45.4 °F 30.28 in ENE 0.3 mph 4 mph 64.8% 0.00 in 118 W/m2
07:09 57.1 °F 45.1 °F 30.28 in NE 0.1 mph 4 mph 64.1% 0.00 in 123 W/m2
07:14 57.2 °F 45.6 °F 30.28 in NNE 0.2 mph 5 mph 65% 0.00 in 130 W/m2
07:19 57.2 °F 45.3 °F 30.28 in NNE 0.2 mph 5 mph 64.4% 0.00 in 144 W/m2
07:24 57.2 °F 45.3 °F 30.28 in NE 0.6 mph 5 mph 64.5% 0.00 in 149 W/m2
07:29 57.2 °F 45.4 °F 30.28 in NNE 0.7 mph 5 mph 64.7% 0.00 in 169 W/m2
07:34 57.3 °F 45.4 °F 30.29 in ENE 0.9 mph 6 mph 64.3% 0.00 in 195 W/m2
07:39 57.5 °F 45.6 °F 30.29 in ENE 0.6 mph 6 mph 64.6% 0.00 in 202 W/m2
07:44 57.6 °F 45.6 °F 30.29 in NE 0.1 mph 6 mph 64% 0.00 in 202 W/m2
07:49 57.8 °F 45.7 °F 30.29 in ENE 1.3 mph 7 mph 63.9% 0.00 in 195 W/m2
07:54 57.8 °F 45.8 °F 30.29 in ENE 0.3 mph 7 mph 64.1% 0.00 in 202 W/m2
07:59 58 °F 46.1 °F 30.30 in ENE 0.4 mph 7 mph 64.5% 0.00 in 239 W/m2
08:00 58.1 °F 46.4 °F 30.30 in NNE 1 mph 7 mph 65% 0.00 in 239 W/m2
08:09 58.6 °F 46.5 °F 30.30 in NE 0.4 mph 2 mph 64% 0.00 in 248 W/m2
08:14 58.8 °F 46.3 °F 30.30 in NE 0.3 mph 2 mph 63.1% 0.00 in 265 W/m2
08:19 59 °F 46.6 °F 30.30 in NNW 0.3 mph 4 mph 63.3% 0.00 in 306 W/m2
08:24 59.2 °F 46.6 °F 30.30 in NE 0.7 mph 4 mph 62.8% 0.00 in 378 W/m2
08:29 59.5 °F 46.8 °F 30.30 in ENE 0.6 mph 4 mph 62.7% 0.00 in 387 W/m2
08:34 59.9 °F 47.1 °F 30.30 in NE 0.4 mph 4 mph 62.4% 0.00 in 336 W/m2
08:39 60.3 °F 46.5 °F 30.30 in NE 1.2 mph 5 mph 60.3% 0.00 in 306 W/m2
08:44 60.2 °F 46.1 °F 30.30 in NE 0.4 mph 5 mph 59.5% 0.00 in 294 W/m2
08:49 60.2 °F 46.9 °F 30.31 in NE 0.2 mph 5 mph 61.4% 0.00 in 341 W/m2
08:54 60.4 °F 46.5 °F 30.31 in NE 1 mph 5 mph 60.1% 0.00 in 410 W/m2
08:59 60.8 °F 46.6 °F 30.31 in ENE 0.8 mph 5 mph 59.7% 0.00 in 417 W/m2
09:04 61.1 °F 46.2 °F 30.31 in ENE 1.5 mph 10 mph 58% 0.00 in 399 W/m2
09:09 61.3 °F 46.6 °F 30.31 in ENE 1.3 mph 10 mph 58.4% 0.00 in 496 W/m2
09:14 61.6 °F 46.7 °F 30.31 in NNE 1 mph 10 mph 58.1% 0.00 in 564 W/m2
09:19 62.1 °F 47.7 °F 30.31 in NE 1.1 mph 10 mph 59.2% 0.00 in 594 W/m2
09:24 62.4 °F 46.7 °F 30.31 in East 1.4 mph 10 mph 56.5% 0.00 in 478 W/m2
09:29 62.5 °F 46.6 °F 30.31 in ENE 0.3 mph 10 mph 56% 0.00 in 480 W/m2
09:34 62.6 °F 47.5 °F 30.31 in ENE 1.1 mph 10 mph 57.8% 0.00 in 550 W/m2
09:39 63 °F 47.7 °F 30.31 in NE 1.2 mph 6 mph 57.4% 0.00 in 621 W/m2
09:44 63.2 °F 47.1 °F 30.31 in ENE 2.3 mph 6 mph 55.5% 0.00 in 621 W/m2
09:49 63 °F 47.1 °F 30.31 in ENE 1 mph 6 mph 56.1% 0.00 in 436 W/m2
09:54 62.9 °F 47.3 °F 30.31 in ENE 1.3 mph 6 mph 56.9% 0.00 in 708 W/m2
09:59 62.8 °F 47.4 °F 30.31 in ENE 0.7 mph 6 mph 57.1% 0.00 in 589 W/m2
10:04 62.9 °F 47.4 °F 30.31 in ENE 1.3 mph 6 mph 56.9% 0.00 in 652 W/m2
10:09 62.9 °F 47.6 °F 30.31 in ENE 0.7 mph 6 mph 57.3% 0.00 in 621 W/m2
10:14 63.3 °F 48.4 °F 30.31 in NNE 0.9 mph 6 mph 58.3% 0.00 in 621 W/m2
10:19 63.8 °F 48.1 °F 30.30 in NNE 0.7 mph 6 mph 56.5% 0.00 in 661 W/m2
10:24 64.1 °F 48.2 °F 30.30 in NNE 0.2 mph 6 mph 56.3% 0.00 in 765 W/m2
10:29 64.6 °F 48.9 °F 30.30 in NE 3 mph 10 mph 56.8% 0.00 in 689 W/m2
10:34 65.2 °F 48.8 °F 30.31 in NE 1.3 mph 10 mph 55.3% 0.00 in 766 W/m2
10:39 65.6 °F 48.5 °F 30.31 in NE 1.5 mph 7 mph 54.1% 0.00 in 796 W/m2
10:44 65.7 °F 49.6 °F 30.31 in NE 0.3 mph 7 mph 56% 0.00 in 819 W/m2
10:49 66.1 °F 49.4 °F 30.31 in ENE 0.3 mph 7 mph 55% 0.00 in 842 W/m2
10:54 66.4 °F 49.9 °F 30.31 in ENE 0.1 mph 7 mph 55.3% 0.00 in 761 W/m2
10:59 66.9 °F 49.4 °F 30.31 in ENE 0.6 mph 7 mph 53.2% 0.00 in 728 W/m2
11:04 67.1 °F 49 °F 30.31 in ENE 1 mph 7 mph 52.1% 0.00 in 719 W/m2
11:09 66.9 °F 49.5 °F 30.31 in ENE 1 mph 5 mph 53.4% 0.00 in 828 W/m2
11:14 66.9 °F 48.2 °F 30.31 in ENE 2.2 mph 7 mph 50.9% 0.00 in 860 W/m2
11:19 66.6 °F 47.8 °F 30.31 in East 1.9 mph 7 mph 50.8% 0.00 in 872 W/m2
11:24 66.6 °F 48.8 °F 30.31 in ENE 0.5 mph 7 mph 52.7% 0.00 in 868 W/m2
11:29 67.2 °F 49.9 °F 30.31 in ENE 0.4 mph 7 mph 53.9% 0.00 in 893 W/m2
11:34 67.8 °F 50 °F 30.30 in ENE 0.4 mph 7 mph 52.9% 0.00 in 916 W/m2
11:39 68.2 °F 50.2 °F 30.30 in NE 0.4 mph 4 mph 52.4% 0.00 in 925 W/m2
11:44 68.7 °F 50.9 °F 30.30 in NE 0.3 mph 4 mph 53% 0.00 in 905 W/m2
11:49 69 °F 49.6 °F 30.30 in NE 0.1 mph 4 mph 50% 0.00 in 926 W/m2
11:54 68.7 °F 48.9 °F 30.30 in ENE 1.9 mph 4 mph 49.1% 0.00 in 921 W/m2
11:59 68.2 °F 48.3 °F 30.30 in East 1.9 mph 6 mph 49% 0.00 in 949 W/m2
12:09 68.4 °F 49.1 °F 30.29 in East 0.1 mph 1 mph 50% 0.00 in 969 W/m2
12:14 69.3 °F 51.4 °F 30.29 in East 0.2 mph 4 mph 53% 0.00 in 974 W/m2
12:19 70.1 °F 50.8 °F 30.28 in East 0.7 mph 4 mph 50.4% 0.00 in 981 W/m2
12:24 70.5 °F 50.4 °F 30.28 in East 0.2 mph 4 mph 49% 0.00 in 981 W/m2
12:29 70.3 °F 49.8 °F 30.28 in East 0.2 mph 4 mph 48.2% 0.00 in 981 W/m2
12:34 70.2 °F 50.1 °F 30.28 in ESE 0.4 mph 4 mph 48.9% 0.00 in 984 W/m2
12:39 69.9 °F 48.5 °F 30.28 in ESE 0.5 mph 4 mph 46.5% 0.00 in 984 W/m2
12:44 69.6 °F 49.8 °F 30.27 in Calm   4 mph 49.3% 0.00 in 976 W/m2
12:49 69.7 °F 48.6 °F 30.27 in ESE 0.3 mph 4 mph 47.1% 0.00 in 981 W/m2
12:54 69.8 °F 49.9 °F 30.27 in SE 0.1 mph 4 mph 49.1% 0.00 in 977 W/m2
12:59 70.2 °F 49.7 °F 30.27 in East 0.8 mph 5 mph 48.3% 0.00 in 983 W/m2
13:04 70.3 °F 49.1 °F 30.26 in ENE 1.9 mph 7 mph 46.9% 0.00 in 981 W/m2
13:09 70.4 °F 48.1 °F 30.26 in East 1.4 mph 7 mph 45.1% 0.00 in 981 W/m2
13:14 70.3 °F 48.4 °F 30.26 in ENE 1.7 mph 7 mph 45.7% 0.00 in 981 W/m2
13:19 70.2 °F 47 °F 30.26 in East 0.6 mph 7 mph 43.4% 0.00 in 977 W/m2
13:24 70.3 °F 47.8 °F 30.26 in ENE 0.7 mph 7 mph 44.8% 0.00 in 976 W/m2
13:29 70.4 °F 48.7 °F 30.26 in NE 0.5 mph 7 mph 46.1% 0.00 in 962 W/m2
13:34 70.5 °F 48.2 °F 30.26 in WNW 2.2 mph 7 mph 45% 0.00 in 976 W/m2
13:39 70.7 °F 49.5 °F 30.26 in WSW 0.8 mph 6 mph 47.1% 0.00 in 979 W/m2
13:44 71 °F 49 °F 30.26 in WSW 0.3 mph 6 mph 45.6% 0.00 in 983 W/m2
13:49 71.2 °F 50.1 °F 30.25 in WSW 0.2 mph 6 mph 47.2% 0.00 in 981 W/m2
13:54 71.5 °F 50.1 °F 30.25 in South 0.6 mph 6 mph 46.8% 0.00 in 981 W/m2
13:59 71.5 °F 48.6 °F 30.25 in SSW 0.8 mph 6 mph 44.3% 0.00 in 967 W/m2
14:04 71.4 °F 49.5 °F 30.25 in ENE 2.3 mph 8 mph 45.8% 0.00 in 962 W/m2
14:09 71.8 °F 48.2 °F 30.25 in NE 1.8 mph 8 mph 43.1% 0.00 in 949 W/m2
14:14 71.9 °F 48.6 °F 30.25 in North 1.4 mph 8 mph 43.6% 0.00 in 942 W/m2
14:19 72.1 °F 49.3 °F 30.25 in NNE 0.4 mph 8 mph 44.5% 0.00 in 939 W/m2
14:24 72.4 °F 49.5 °F 30.25 in NNE 0.1 mph 8 mph 44.5% 0.00 in 935 W/m2
14:29 72.6 °F 50.3 °F 30.25 in NNE 1 mph 8 mph 45.5% 0.00 in 925 W/m2
14:34 72.7 °F 49.9 °F 30.25 in Calm   8 mph 44.7% 0.00 in 933 W/m2
14:39 72.9 °F 50.6 °F 30.25 in North 0.1 mph 1 mph 45.4% 0.00 in 962 W/m2
14:44 73.1 °F 49.3 °F 30.25 in North 0.1 mph 2 mph 42.9% 0.00 in 935 W/m2
14:49 73.2 °F 49.2 °F 30.25 in NE 0.6 mph 4 mph 42.6% 0.00 in 904 W/m2
14:54 73 °F 49.5 °F 30.25 in Calm   4 mph 43.5% 0.00 in 893 W/m2
14:59 72.9 °F 47.9 °F 30.25 in ENE 1 mph 4 mph 41% 0.00 in 879 W/m2
15:04 72.8 °F 48.8 °F 30.25 in East 0.2 mph 4 mph 42.6% 0.00 in 888 W/m2
15:09 72.7 °F 48 °F 30.25 in Calm   2 mph 41.5% 0.00 in 893 W/m2
15:14 72.7 °F 47.5 °F 30.24 in Calm   2 mph 40.7% 0.00 in 863 W/m2
15:19 72.5 °F 48.4 °F 30.24 in East 1.2 mph 4 mph 42.5% 0.00 in 856 W/m2
15:24 72.3 °F 47.3 °F 30.24 in East 0.3 mph 4 mph 40.9% 0.00 in 854 W/m2
15:29 72.2 °F 48.4 °F 30.24 in Calm   4 mph 42.8% 0.00 in 861 W/m2
15:34 72.6 °F 49.7 °F 30.24 in Calm   4 mph 44.5% 0.00 in 872 W/m2
15:39 73.2 °F 50.4 °F 30.24 in East 0.3 mph 2 mph 44.6% 0.00 in 881 W/m2
15:44 73.8 °F 50.2 °F 30.24 in East 0.3 mph 2 mph 43.4% 0.00 in 882 W/m2
15:49 74.1 °F 49.9 °F 30.24 in East 0.3 mph 3 mph 42.6% 0.00 in 886 W/m2
15:54 74 °F 51.3 °F 30.24 in East 0.1 mph 3 mph 44.9% 0.00 in 889 W/m2
15:59 74.4 °F 52 °F 30.24 in ENE 0.6 mph 3 mph 45.5% 0.00 in 886 W/m2
16:00 74.6 °F 51.3 °F 30.24 in Calm   3 mph 44% 0.00 in 877 W/m2
16:09 74.4 °F 50.1 °F 30.24 in Calm     42.5% 0.00 in 851 W/m2
16:14 74.1 °F 50.3 °F 30.24 in ENE 0.2 mph 3 mph 43.3% 0.00 in 246 W/m2
16:19 73.7 °F 50 °F 30.24 in Calm   3 mph 43.3% 0.00 in 227 W/m2
16:24 73.3 °F 50.5 °F 30.24 in ENE 0.2 mph 3 mph 44.8% 0.00 in 195 W/m2
16:29 73 °F 49.8 °F 30.24 in ENE 0.3 mph 3 mph 44% 0.00 in 183 W/m2
16:34 72.8 °F 49.9 °F 30.24 in ENE 0.3 mph 3 mph 44.3% 0.00 in 165 W/m2
16:39 72.8 °F 50.4 °F 30.23 in ENE 0.2 mph 3 mph 45.4% 0.00 in 155 W/m2
16:44 72.6 °F 49.8 °F 30.23 in East 0.4 mph 5 mph 44.5% 0.00 in 176 W/m2
16:49 72.2 °F 49.3 °F 30.24 in East 0.2 mph 5 mph 44.3% 0.00 in 197 W/m2
16:54 71.6 °F 49.4 °F 30.24 in Calm   5 mph 45.4% 0.00 in 209 W/m2
16:59 71.3 °F 49.5 °F 30.23 in Calm   5 mph 46.1% 0.00 in 216 W/m2
17:04 71.1 °F 48.9 °F 30.23 in Calm   5 mph 45.3% 0.00 in 199 W/m2
17:09 71.1 °F 49.9 °F 30.24 in Calm     47.1% 0.00 in 183 W/m2
17:14 71.1 °F 50.7 °F 30.24 in Calm   1 mph 48.5% 0.00 in 178 W/m2
17:19 71.2 °F 49.9 °F 30.24 in Calm   1 mph 47% 0.00 in 165 W/m2
17:24 71.2 °F 51.3 °F 30.24 in East 0.4 mph 3 mph 49.4% 0.00 in 162 W/m2
17:29 71 °F 52.1 °F 30.24 in SE 0.2 mph 4 mph 51.1% 0.00 in 167 W/m2
17:34 70.8 °F 51.9 °F 30.24 in SSE 0.2 mph 4 mph 51.2% 0.00 in 178 W/m2
17:39 70.6 °F 52.4 °F 30.24 in SSE 0.1 mph 2 mph 52.6% 0.00 in 181 W/m2
17:44 70.4 °F 52.4 °F 30.23 in SSE 0.5 mph 2 mph 52.9% 0.00 in 176 W/m2
17:49 70.3 °F 51.7 °F 30.24 in Calm   2 mph 51.7% 0.00 in 160 W/m2
17:54 70.2 °F 51.5 °F 30.24 in Calm   2 mph 51.5% 0.00 in 171 W/m2
17:59 70.2 °F 51.5 °F 30.23 in Calm   2 mph 51.4% 0.00 in 141 W/m2
18:04 70.2 °F 51.1 °F 30.23 in Calm   2 mph 50.8% 0.00 in 127 W/m2
18:09 70 °F 51.2 °F 30.23 in SSE 0.1 mph 2 mph 51.2% 0.00 in 118 W/m2
18:14 70 °F 51.6 °F 30.23 in SSE 0.5 mph 3 mph 52.2% 0.00 in 111 W/m2
18:19 69.9 °F 51.4 °F 30.23 in SSE 0.1 mph 3 mph 51.8% 0.00 in 95 W/m2
18:24 69.9 °F 51.3 °F 30.23 in Calm   3 mph 51.7% 0.00 in 90 W/m2
18:29 69.7 °F 51 °F 30.23 in Calm   3 mph 51.4% 0.00 in 86 W/m2
18:34 69.5 °F 50.9 °F 30.23 in SSE 0.3 mph 3 mph 51.7% 0.00 in 62 W/m2
18:39 69.2 °F 49.6 °F 30.23 in SSE 1 mph 5 mph 49.7% 0.00 in 46 W/m2
18:44 68.6 °F 48.7 °F 30.23 in SSE 0.8 mph 5 mph 49% 0.00 in 42 W/m2
18:49 68.1 °F 48.6 °F 30.24 in SSE 0.2 mph 5 mph 49.7% 0.00 in 33 W/m2
18:54 67.8 °F 48.5 °F 30.24 in SSE 0.1 mph 5 mph 50% 0.00 in 28 W/m2
18:59 67.5 °F 48.8 °F 30.24 in West 0.2 mph 5 mph 51% 0.00 in 26 W/m2
19:04 67.3 °F 48.2 °F 30.24 in Calm   5 mph 50.4% 0.00 in 33 W/m2
19:09 67.1 °F 48.3 °F 30.24 in Calm   2 mph 50.9% 0.00 in 33 W/m2
19:14 66.9 °F 48.2 °F 30.24 in Calm   2 mph 51% 0.00 in 33 W/m2
19:19 66.8 °F 48.5 °F 30.24 in West 0.1 mph 3 mph 51.8% 0.00 in 28 W/m2
19:24 66.6 °F 48 °F 30.24 in West 0.1 mph 3 mph 51% 0.00 in 25 W/m2
19:29 66.5 °F 48.2 °F 30.25 in Calm   3 mph 51.6% 0.00 in 21 W/m2
19:34 66.4 °F 48.3 °F 30.25 in Calm   3 mph 52% 0.00 in 21 W/m2
19:39 66.3 °F 48.5 °F 30.25 in Calm     52.8% 0.00 in 14 W/m2
19:44 66.1 °F 48.4 °F 30.25 in Calm     53% 0.00 in 14 W/m2
19:49 65.8 °F 48.3 °F 30.25 in Calm     53.1% 0.00 in 11 W/m2
19:54 65.7 °F 48.6 °F 30.25 in Calm   1 mph 54% 0.00 in 9 W/m2
19:59 65.5 °F 47.9 °F 30.25 in West 0.1 mph 2 mph 53% 0.00 in 7 W/m2
20:09 65 °F 47.4 °F 30.25 in West 0.2 mph 2 mph 52.9% 0.00 in 0 W/m2
20:14 64.8 °F 47.2 °F 30.26 in West 0.3 mph 2 mph 52.8% 0.00 in 0 W/m2
20:19 64.6 °F 47.1 °F 30.26 in West 0.1 mph 2 mph 53.1% 0.00 in 0 W/m2
20:24 64.4 °F 47.2 °F 30.26 in WSW 0.3 mph 2 mph 53.6% 0.00 in 0 W/m2
20:29 64.1 °F 46.7 °F 30.26 in WSW 0.4 mph 3 mph 53% 0.00 in 0 W/m2
20:34 63.9 °F 46.1 °F 30.27 in WSW 0.3 mph 3 mph 52.3% 0.00 in 0 W/m2
20:39 63.6 °F 46.1 °F 30.27 in Calm   2 mph 52.8% 0.00 in 0 W/m2
20:44 63.3 °F 46 °F 30.28 in Calm   2 mph 53.1% 0.00 in 0 W/m2
20:49 63.1 °F 46.2 °F 30.28 in Calm   2 mph 54% 0.00 in 0 W/m2
20:54 62.8 °F 45.9 °F 30.28 in Calm   2 mph 54% 0.00 in 0 W/m2
20:59 62.5 °F 45.7 °F 30.28 in Calm   2 mph 54% 0.00 in 0 W/m2
21:04 62.3 °F 45.7 °F 30.28 in WSW 0.4 mph 2 mph 54.5% 0.00 in 0 W/m2
21:09 62 °F 45.5 °F 30.28 in WSW 0.2 mph 3 mph 54.7% 0.00 in 0 W/m2
21:14 61.8 °F 45.6 °F 30.29 in Calm   3 mph 55.3% 0.00 in 0 W/m2
21:19 61.6 °F 46 °F 30.29 in Calm   3 mph 56.5% 0.00 in 0 W/m2
21:24 61.3 °F 46 °F 30.30 in WSW 0.2 mph 3 mph 57.1% 0.00 in 0 W/m2
21:29 61 °F 46.6 °F 30.30 in WSW 0.5 mph 3 mph 58.9% 0.00 in 0 W/m2
21:34 60.7 °F 46.9 °F 30.30 in WSW 0.3 mph 3 mph 60.4% 0.00 in 0 W/m2
21:39 60.4 °F 47.4 °F 30.30 in WSW 0.4 mph 3 mph 62% 0.00 in 0 W/m2
21:44 60.1 °F 48.1 °F 30.30 in SW 0.4 mph 4 mph 64.6% 0.00 in 0 W/m2
21:49 59.9 °F 48.4 °F 30.31 in SSW 0.7 mph 4 mph 65.7% 0.00 in 0 W/m2
21:54 59.6 °F 48.5 °F 30.31 in SSW 1.2 mph 5 mph 66.8% 0.00 in 0 W/m2
21:59 59.1 °F 48.7 °F 30.31 in South 0.9 mph 5 mph 68.2% 0.00 in 0 W/m2
22:04 58.8 °F 48.6 °F 30.31 in SSW 0.5 mph 5 mph 69% 0.00 in 0 W/m2
22:09 58.5 °F 48.7 °F 30.31 in Calm   4 mph 69.8% 0.00 in 0 W/m2
22:14 58.2 °F 48.9 °F 30.31 in Calm   4 mph 71% 0.00 in 0 W/m2
22:19 58 °F 48.7 °F 30.32 in Calm   4 mph 71% 0.00 in 0 W/m2
22:24 57.8 °F 48.7 °F 30.32 in Calm   4 mph 71.8% 0.00 in 0 W/m2
22:28 57.6 °F 48.6 °F 30.31 in SSW 0.1 mph 4 mph 72% 0.00 in 0 W/m2
22:34 57.4 °F 48.1 °F 30.32 in SSW 0.3 mph 4 mph 71.2% 0.00 in 0 W/m2
22:39 57.1 °F 47.6 °F 30.32 in SSW 0.1 mph 2 mph 70.4% 0.00 in 0 W/m2
22:44 56.9 °F 47.4 °F 30.32 in Calm   2 mph 70.4% 0.00 in 0 W/m2
22:49 56.8 °F 47.5 °F 30.32 in Calm   2 mph 71% 0.00 in 0 W/m2
22:54 56.6 °F 47.2 °F 30.32 in Calm   2 mph 70.8% 0.00 in 0 W/m2
22:59 56.4 °F 46.9 °F 30.32 in Calm   2 mph 70.5% 0.00 in 0 W/m2
23:04 56.2 °F 46.4 °F 30.32 in Calm   2 mph 69.6% 0.00 in 0 W/m2
23:09 56 °F 45.8 °F 30.32 in Calm     68.6% 0.00 in 0 W/m2
23:14 55.9 °F 45.6 °F 30.32 in Calm     68.2% 0.00 in 0 W/m2
23:18 55.8 °F 45.8 °F 30.32 in Calm     69% 0.00 in 0 W/m2
23:24 55.6 °F 45.6 °F 30.32 in Calm     69% 0.00 in 0 W/m2
23:29 55.4 °F 45.5 °F 30.32 in Calm     69% 0.00 in 0 W/m2
23:34 55.3 °F 45.7 °F 30.32 in Calm     70% 0.00 in 0 W/m2
23:39 55.1 °F 45.6 °F 30.32 in Calm     70.2% 0.00 in 0 W/m2
23:44 55 °F 45.8 °F 30.32 in Calm     71.2% 0.00 in 0 W/m2
23:49 54.8 °F 46 °F 30.32 in Calm     72% 0.00 in 0 W/m2
23:54 54.7 °F 46 °F 30.32 in Calm     72.5% 0.00 in 0 W/m2
23:59 54.6 °F 46.1 °F 30.32 in Calm     73% 0.00 in 0 W/m2
Hartford County Weather
Compliments of Weather Underground - 2 mb